Главная страница
METAR-TAF:

METAR-TAF

Аэропорты :

Koumac, Новая Каледония

широта: 20-34S, долгота: 164-17E, высота над уровнем моря: 23 м

METAR: отсутствует

Время: 08:18 (21:18 UTC)

Прогноз

Эта сводка был подготовлена 4 часа и 18 минут назад, в 17:00 UTC
Прогноз действительный с 04-го 18 UTC до 05-го 18 UTC
Ветер 3 Узел переменных направлений
Видимость 10 км и более
небольшая облачность на высоте 2500 фута
Отдельные облака на высоте 3000 фута
изменения
С 04-го 22 UTC до 04-го 24 UTC
Ветер 10 Узел от южный
временами
С 05-го 01 UTC до 05-го 06 UTC
Видимость: 4000 м
небольшая облачность на высоте 2000 фута, мощно-кучевые.
ливневые дожди
Вероятность 30% :
временами
С 05-го 03 UTC до 05-го 05 UTC
Видимость: 2000 м
Рассеянная облачность на высоте 1200 фута
небольшая облачность на высоте 1600 фута, Кучево-дождевые.
ливневые дожди,

TAF: NWWK 041700Z 0418/0518 VRB03KT 9999 FEW025 SCT030 BECMG 0422/0424 18010KT TEMPO 0501/0506 4000 SHRA FEW020TCU PROB30 TEMPO 0503/0505 2000 SHRA BKN012 FEW016CB

Метеонаблюдения и прогнозы для более 4000 аэропортов (сводки METAR и TAF).

Имеющиеся станции представлены на карте желтыми и красными точками.

Чтобы увидеть название станции, наведите на нее мышь.

Затем щелкните, чтобы увидеть метеонаблюдения и метеопрогнозы.

Управление картой: чтобы увеличить масштаб, щелкните зеленые кнопки с черным крестиком; чтобы уменьшить масштаб, щелкните зеленую кнопку с тире; для просмотра соседних карт щелкайте зеленые стрелки.


METAR-TAF: